createdAt,value
2022-09-14T00:01:08.489Z,55.26
2022-09-14T00:03:41.226Z,54.88
2022-09-14T00:06:11.096Z,54.85
2022-09-14T00:08:40.089Z,54.38
2022-09-14T00:11:08.482Z,54.61
2022-09-14T00:13:36.274Z,54.66
2022-09-14T00:16:04.827Z,54.88
2022-09-14T00:18:32.704Z,55.10
2022-09-14T00:21:01.401Z,55.50
2022-09-14T00:23:29.011Z,55.32
2022-09-14T00:26:05.492Z,55.78
2022-09-14T00:28:38.582Z,55.72
2022-09-14T00:31:07.265Z,55.58
2022-09-14T00:33:36.061Z,55.48
2022-09-14T00:36:08.632Z,56.12
2022-09-14T00:38:36.608Z,55.58
2022-09-14T00:41:06.711Z,55.73
2022-09-14T00:43:34.580Z,55.91
2022-09-14T00:46:03.001Z,55.73
2022-09-14T00:48:30.740Z,55.45
2022-09-14T00:50:58.324Z,55.40
2022-09-14T00:53:27.056Z,55.06
2022-09-14T00:55:55.063Z,55.00
2022-09-14T00:58:24.089Z,55.27
2022-09-14T01:00:51.732Z,55.31
2022-09-14T01:03:20.538Z,55.42
2022-09-14T01:05:55.229Z,55.30
2022-09-14T01:08:38.457Z,55.76
2022-09-14T01:11:12.870Z,55.74
2022-09-14T01:13:45.465Z,55.79
2022-09-14T01:16:16.663Z,55.62
2022-09-14T01:18:46.454Z,55.55
2022-09-14T01:21:15.826Z,55.42
2022-09-14T01:23:49.405Z,55.51
2022-09-14T01:26:48.360Z,54.71
2022-09-14T01:29:17.626Z,54.88
2022-09-14T01:31:55.512Z,54.92
2022-09-14T01:34:27.089Z,54.58
2022-09-14T01:36:57.021Z,54.40
2022-09-14T01:39:24.652Z,54.52
2022-09-14T01:41:52.416Z,54.79
2022-09-14T01:44:23.425Z,54.72
2022-09-14T01:46:53.076Z,54.67
2022-09-14T01:49:22.125Z,54.64
2022-09-14T01:51:50.707Z,54.80
2022-09-14T01:54:21.495Z,54.97
2022-09-14T01:56:50.881Z,55.25
2022-09-14T01:59:21.786Z,55.45
2022-09-14T02:01:51.590Z,55.23
2022-09-14T02:04:23.509Z,55.17
2022-09-14T02:06:51.095Z,55.00
2022-09-14T02:09:21.256Z,54.95
2022-09-14T02:11:48.856Z,54.95
2022-09-14T02:14:16.563Z,55.17
2022-09-14T02:16:46.510Z,55.05
2022-09-14T03:14:56.815Z,55.65
2022-09-14T03:17:24.722Z,55.68
2022-09-14T03:19:52.674Z,56.02
2022-09-14T03:22:45.247Z,56.13
2022-09-14T03:25:13.125Z,56.32
2022-09-14T03:27:41.121Z,56.24
2022-09-14T03:30:11.937Z,56.43
2022-09-14T03:32:39.807Z,56.60
2022-09-14T03:35:08.804Z,56.37
2022-09-14T03:37:38.486Z,56.34
2022-09-14T03:40:07.107Z,56.93
2022-09-14T03:42:35.064Z,56.88
2022-09-14T03:45:02.977Z,56.76
2022-09-14T03:47:32.305Z,56.86
2022-09-14T03:50:00.068Z,56.55
2022-09-14T03:52:27.976Z,56.96
2022-09-14T03:54:55.782Z,56.89
2022-09-14T03:57:23.674Z,57.10
2022-09-14T03:59:51.574Z,56.93
2022-09-14T04:02:19.916Z,57.46
2022-09-14T04:04:52.197Z,57.55
2022-09-14T04:07:20.231Z,57.47
2022-09-14T04:09:48.065Z,57.66
2022-09-14T04:12:15.965Z,57.73
2022-09-14T04:14:43.826Z,57.70
2022-09-14T04:17:11.730Z,57.68
2022-09-14T04:19:41.537Z,57.75
2022-09-14T04:22:11.024Z,57.45
2022-09-14T04:24:39.141Z,57.72
2022-09-14T04:27:07.435Z,57.35
2022-09-14T04:29:35.257Z,57.13
2022-09-14T04:32:03.607Z,57.53
2022-09-14T04:34:31.480Z,57.59
2022-09-14T04:37:00.595Z,57.55
2022-09-14T04:39:30.326Z,57.57
2022-09-14T04:41:58.115Z,57.26
2022-09-14T04:44:29.350Z,57.50
2022-09-14T04:46:57.186Z,57.68
2022-09-14T04:49:25.102Z,57.73
2022-09-14T04:51:54.081Z,57.94
2022-09-14T04:54:22.168Z,58.01
2022-09-14T04:56:51.582Z,58.32
2022-09-14T04:59:32.423Z,58.11
2022-09-14T05:02:04.700Z,58.00
2022-09-14T05:04:33.822Z,58.11
2022-09-14T05:07:02.044Z,57.88
2022-09-14T05:09:32.030Z,57.77
2022-09-14T05:12:01.375Z,57.87
2022-09-14T05:14:29.331Z,58.37
2022-09-14T05:17:01.415Z,57.77
2022-09-14T05:19:29.654Z,57.77
2022-09-14T05:22:01.029Z,57.91
2022-09-14T05:24:39.528Z,57.94
2022-09-14T05:27:11.697Z,57.83
2022-09-14T05:29:40.313Z,57.61
2022-09-14T05:32:08.454Z,57.47
2022-09-14T05:34:43.403Z,58.17
2022-09-14T05:37:17.049Z,57.85
2022-09-14T05:39:47.446Z,57.76
2022-09-14T05:42:16.812Z,58.01
2022-09-14T05:44:44.656Z,57.93
2022-09-14T05:47:12.322Z,58.12
2022-09-14T05:49:41.713Z,58.23
2022-09-14T05:52:09.471Z,58.43
2022-09-14T05:54:37.208Z,58.89
2022-09-14T05:57:05.163Z,58.48
2022-09-14T05:59:34.575Z,58.25
2022-09-14T06:02:02.650Z,58.69
2022-09-14T06:04:30.478Z,58.69
2022-09-14T06:07:17.438Z,58.84
2022-09-14T06:09:46.100Z,58.75
2022-09-14T06:12:14.720Z,58.63
2022-09-14T06:14:43.900Z,59.01
2022-09-14T06:17:11.711Z,58.49
2022-09-14T06:19:39.672Z,58.79
2022-09-14T06:22:07.532Z,58.79
2022-09-14T06:24:35.732Z,58.65
2022-09-14T06:29:37.625Z,58.96
2022-09-14T06:32:07.756Z,59.02
2022-09-14T06:34:35.539Z,59.27
2022-09-14T06:37:03.283Z,59.06
2022-09-14T06:39:32.916Z,58.67
2022-09-14T06:42:00.811Z,58.83
2022-09-14T06:44:28.741Z,58.71
2022-09-14T06:46:56.504Z,58.92
2022-09-14T06:49:25.811Z,59.06
2022-09-14T06:51:56.932Z,59.27
2022-09-14T06:54:25.503Z,58.81
2022-09-14T06:56:54.407Z,59.21
2022-09-14T06:59:24.167Z,59.14
2022-09-14T07:01:53.036Z,59.37
2022-09-14T07:04:21.810Z,59.09
2022-09-14T07:06:59.419Z,59.06
2022-09-14T07:09:31.866Z,59.39
2022-09-14T07:12:09.017Z,58.83
2022-09-14T07:14:38.500Z,59.46
2022-09-14T07:17:06.958Z,59.21
2022-09-14T07:19:35.185Z,59.07
2022-09-14T07:22:05.171Z,59.03
2022-09-14T07:24:33.681Z,58.90
2022-09-14T07:27:01.795Z,58.99
2022-09-14T07:29:30.113Z,58.97
2022-09-14T07:31:57.917Z,58.99
2022-09-14T07:34:25.781Z,58.89
2022-09-14T07:36:53.555Z,59.16
2022-09-14T07:39:22.711Z,59.04
2022-09-14T07:41:50.385Z,58.34
2022-09-14T07:44:18.451Z,58.85
2022-09-14T07:46:46.534Z,58.67
2022-09-14T07:49:14.265Z,58.55
2022-09-14T07:51:42.028Z,58.82
2022-09-14T07:54:11.661Z,58.77
2022-09-14T07:56:40.819Z,58.50
2022-09-14T07:59:34.442Z,58.65
2022-09-14T08:02:06.937Z,58.48
2022-09-14T08:04:37.844Z,58.48
2022-09-14T08:07:09.408Z,58.71
2022-09-14T08:09:37.400Z,58.27
2022-09-14T08:12:17.990Z,58.47
2022-09-14T08:14:51.273Z,58.03
2022-09-14T08:17:25.250Z,58.31
2022-09-14T08:19:53.246Z,58.29
2022-09-14T08:22:21.118Z,58.39
2022-09-14T08:24:48.956Z,58.50
2022-09-14T08:27:18.013Z,58.94
2022-09-14T08:29:45.706Z,58.78
2022-09-14T08:32:13.717Z,58.46
2022-09-14T08:34:42.305Z,58.47
2022-09-14T08:37:10.755Z,58.17
2022-09-14T08:39:38.635Z,58.33
2022-09-14T08:42:07.102Z,58.39
2022-09-14T08:44:41.237Z,58.33
2022-09-14T08:47:12.156Z,58.47
2022-09-14T08:49:47.010Z,58.43
2022-09-14T08:52:24.156Z,58.90
2022-09-14T08:54:55.318Z,58.88
2022-09-14T08:57:27.263Z,58.75
2022-09-14T09:00:02.436Z,59.16
2022-09-14T09:02:46.484Z,58.82
2022-09-14T09:05:25.035Z,59.04
2022-09-14T09:07:55.296Z,58.96
2022-09-14T09:10:23.875Z,58.71
2022-09-14T09:12:53.578Z,58.71
2022-09-14T09:15:24.155Z,58.93
2022-09-14T09:17:55.223Z,58.88
2022-09-14T09:20:30.552Z,58.85
2022-09-14T09:23:07.025Z,59.14
2022-09-14T09:25:42.571Z,58.98
2022-09-14T09:28:11.618Z,58.97
2022-09-14T09:30:41.585Z,59.17
2022-09-14T09:33:10.690Z,58.93
2022-09-14T09:35:38.583Z,59.14
2022-09-14T09:38:10.825Z,58.73
2022-09-14T09:40:39.721Z,58.75
2022-09-14T09:43:09.214Z,59.11
2022-09-14T09:46:02.980Z,58.82
2022-09-14T09:48:33.640Z,59.07
2022-09-14T09:51:05.307Z,58.93
2022-09-14T09:53:34.506Z,58.79
2022-09-14T09:56:02.639Z,59.32
2022-09-14T09:58:32.583Z,59.00
2022-09-14T10:01:02.746Z,58.68
2022-09-14T10:03:35.855Z,59.04
2022-09-14T10:06:05.846Z,59.29
2022-09-14T10:08:35.005Z,59.33
2022-09-14T10:11:03.963Z,59.19
2022-09-14T10:13:37.691Z,58.95
2022-09-14T10:16:17.952Z,59.32
2022-09-14T10:18:48.995Z,59.20
2022-09-14T10:21:17.468Z,59.29
2022-09-14T10:23:45.242Z,59.22
2022-09-14T10:26:22.893Z,59.20
2022-09-14T10:28:51.760Z,58.90
2022-09-14T10:31:24.927Z,58.87
2022-09-14T10:33:54.346Z,59.70
2022-09-14T10:36:25.723Z,59.36
2022-09-14T10:38:55.263Z,59.28
2022-09-14T10:41:26.241Z,59.40
2022-09-14T10:44:21.634Z,58.99
2022-09-14T10:47:04.406Z,59.07
2022-09-14T10:49:38.039Z,58.85
2022-09-14T10:52:09.593Z,59.07
2022-09-14T10:55:02.660Z,59.35
2022-09-14T10:57:35.272Z,59.09
2022-09-14T11:00:05.329Z,58.96
2022-09-14T11:02:55.929Z,58.87
2022-09-14T11:05:24.976Z,59.01
2022-09-14T11:07:58.884Z,58.86
2022-09-14T11:10:29.380Z,59.24
2022-09-14T11:13:11.135Z,58.98
2022-09-14T11:15:43.093Z,58.40
2022-09-14T11:18:18.781Z,58.69
2022-09-14T11:20:50.274Z,58.54
2022-09-14T11:23:27.491Z,58.22
2022-09-14T11:25:57.284Z,58.58
2022-09-14T11:28:26.570Z,58.68
2022-09-14T11:30:56.932Z,58.80
2022-09-14T11:33:31.254Z,58.53
2022-09-14T11:36:00.634Z,58.77
2022-09-14T11:38:29.899Z,58.77
2022-09-14T11:41:02.129Z,58.64
2022-09-14T11:43:42.428Z,58.41
2022-09-14T11:46:12.462Z,58.36
2022-09-14T11:48:44.386Z,58.25
2022-09-14T11:51:15.639Z,57.99
2022-09-14T11:53:46.245Z,57.94
2022-09-14T11:56:24.785Z,58.11
2022-09-14T11:58:52.548Z,58.01
2022-09-14T12:01:35.584Z,57.42
2022-09-14T12:04:11.990Z,57.39
2022-09-14T12:07:04.647Z,57.56
2022-09-14T12:09:51.505Z,57.54
2022-09-14T12:12:43.371Z,57.47
2022-09-14T12:15:20.341Z,57.34
2022-09-14T12:17:48.096Z,57.27
2022-09-14T12:20:44.484Z,56.42
2022-09-14T12:23:24.221Z,56.13
2022-09-14T12:26:12.283Z,56.86
2022-09-14T12:28:51.778Z,57.14
2022-09-14T12:31:36.106Z,56.99
2022-09-14T12:34:24.652Z,56.79
2022-09-14T12:37:27.906Z,56.28
2022-09-14T12:40:34.159Z,56.23
2022-09-14T12:43:47.456Z,55.84
2022-09-14T12:46:40.813Z,55.48
2022-09-14T12:49:39.991Z,55.22
2022-09-14T12:52:18.797Z,56.33
2022-09-14T12:54:52.439Z,56.30
2022-09-14T12:57:29.365Z,56.44
2022-09-14T13:00:02.636Z,57.04
2022-09-14T13:03:04.998Z,56.47
2022-09-14T13:05:33.776Z,56.84
2022-09-14T13:08:03.113Z,56.81
2022-09-14T13:10:33.193Z,56.49
2022-09-14T13:13:01.697Z,57.13
2022-09-14T13:15:32.514Z,56.95
2022-09-14T13:18:01.395Z,57.19
2022-09-14T13:20:29.289Z,57.08
2022-09-14T13:22:58.988Z,57.03
2022-09-14T13:25:32.365Z,57.26
2022-09-14T13:28:00.449Z,57.03
2022-09-14T13:30:29.242Z,56.94
2022-09-14T13:32:57.685Z,57.09
2022-09-14T13:35:29.827Z,57.45
2022-09-14T13:37:59.512Z,57.10
2022-09-14T13:40:30.092Z,57.30
2022-09-14T13:42:58.504Z,57.45
2022-09-14T13:45:26.136Z,57.47
2022-09-14T13:47:53.916Z,57.32
2022-09-14T13:50:21.941Z,57.37
2022-09-14T13:53:01.731Z,57.32
2022-09-14T13:55:43.286Z,57.46
2022-09-14T13:58:16.021Z,57.15
2022-09-14T14:00:58.210Z,56.67
2022-09-14T14:03:30.892Z,56.84
2022-09-14T14:05:58.696Z,56.63
2022-09-14T14:08:32.872Z,57.03
2022-09-14T14:11:02.972Z,56.95
2022-09-14T14:13:31.603Z,57.15
2022-09-14T14:16:16.099Z,57.26
2022-09-14T14:18:44.173Z,56.60
2022-09-14T14:21:17.593Z,56.66
2022-09-14T14:24:02.839Z,57.09
2022-09-14T14:26:34.474Z,57.01
2022-09-14T14:29:08.604Z,56.89
2022-09-14T14:31:36.322Z,56.59
2022-09-14T14:34:12.303Z,56.66
2022-09-14T14:36:39.996Z,57.05
2022-09-14T14:39:10.101Z,56.73
2022-09-14T14:41:39.060Z,56.83
2022-09-14T14:44:07.274Z,57.01
2022-09-14T14:46:35.053Z,56.69
2022-09-14T14:49:02.837Z,56.76
2022-09-14T14:51:30.432Z,56.58
2022-09-14T14:54:01.469Z,55.75
2022-09-14T14:56:29.613Z,56.32
2022-09-14T14:59:02.081Z,56.58
2022-09-14T15:01:30.318Z,56.25
2022-09-14T15:03:58.466Z,56.59
2022-09-14T15:06:28.108Z,56.70
2022-09-14T15:08:56.192Z,56.85
2022-09-14T15:11:24.373Z,56.99
2022-09-14T15:13:52.004Z,57.06
2022-09-14T15:16:21.188Z,57.26
2022-09-14T15:18:49.302Z,56.83
2022-09-14T15:21:17.526Z,57.35
2022-09-14T15:23:45.738Z,57.63
2022-09-14T15:26:14.132Z,57.06
2022-09-14T15:28:42.223Z,57.61
2022-09-14T15:31:10.356Z,57.34
2022-09-14T15:33:40.020Z,56.93
2022-09-14T15:36:10.602Z,57.12
2022-09-14T15:38:38.893Z,56.28
2022-09-14T15:41:07.192Z,56.85
2022-09-14T15:43:35.153Z,56.77
2022-09-14T15:46:03.723Z,56.46
2022-09-14T15:48:31.902Z,56.66
2022-09-14T15:51:01.745Z,57.04
2022-09-14T15:53:30.195Z,56.64
2022-09-14T15:56:01.965Z,56.41
2022-09-14T15:58:31.493Z,56.20
2022-09-14T16:00:59.591Z,56.38
2022-09-14T16:03:27.818Z,56.55
2022-09-14T16:05:55.760Z,56.93
2022-09-14T16:08:25.001Z,56.94
2022-09-14T16:10:58.560Z,57.06
2022-09-14T16:13:26.421Z,56.86
2022-09-14T16:16:04.214Z,56.96
2022-09-14T16:18:32.091Z,57.14
2022-09-14T16:21:05.598Z,57.24
2022-09-14T16:23:35.370Z,56.93
2022-09-14T16:26:06.620Z,56.47
2022-09-14T16:28:34.826Z,56.29
2022-09-14T16:31:07.093Z,56.69
2022-09-14T16:33:38.663Z,56.44
2022-09-14T16:36:08.243Z,56.76
2022-09-14T16:38:38.573Z,56.79
2022-09-14T16:41:07.154Z,56.40
2022-09-14T16:43:35.460Z,56.29
2022-09-14T16:46:04.996Z,56.30
2022-09-14T16:48:34.735Z,56.35
2022-09-14T16:51:04.212Z,56.38
2022-09-14T16:53:32.771Z,56.49
2022-09-14T16:56:06.447Z,56.00
2022-09-14T16:58:35.657Z,56.38
2022-09-14T17:01:06.998Z,56.38
2022-09-14T17:03:35.492Z,56.10
2022-09-14T17:06:09.888Z,56.50
2022-09-14T17:08:41.868Z,56.42
2022-09-14T17:11:14.285Z,56.52
2022-09-14T17:13:42.987Z,56.47
2022-09-14T17:16:11.841Z,56.30
2022-09-14T17:18:41.019Z,56.74
2022-09-14T17:21:10.274Z,56.82
2022-09-14T17:23:38.072Z,57.14
2022-09-14T17:26:06.884Z,57.21
2022-09-14T17:28:37.013Z,57.04
2022-09-14T17:31:10.752Z,56.97
2022-09-14T17:33:38.525Z,56.92
2022-09-14T17:36:06.757Z,57.19
2022-09-14T17:38:35.710Z,57.19
2022-09-14T17:43:51.355Z,57.42
2022-09-14T17:46:20.451Z,57.52
2022-09-14T17:48:48.131Z,57.56
2022-09-14T17:51:18.075Z,57.50
2022-09-14T17:53:46.221Z,57.77
2022-09-14T17:56:16.026Z,57.86
2022-09-14T17:58:43.868Z,57.78
2022-09-14T18:01:14.225Z,57.79
2022-09-14T18:03:42.925Z,57.74
2022-09-14T18:06:11.949Z,57.76
2022-09-14T18:08:39.931Z,57.66
2022-09-14T18:11:09.569Z,58.07
2022-09-14T18:13:40.755Z,57.72
2022-09-14T18:16:08.617Z,57.78
2022-09-14T18:18:37.842Z,58.30
2022-09-14T18:21:05.856Z,58.11
2022-09-14T18:23:33.700Z,58.08
2022-09-14T18:26:01.761Z,58.13
2022-09-14T18:28:29.480Z,58.22
2022-09-14T18:31:00.753Z,58.45
2022-09-14T18:33:28.448Z,58.60
2022-09-14T18:35:57.571Z,58.42
2022-09-14T18:38:25.289Z,58.51
2022-09-14T18:40:52.886Z,58.71
2022-09-14T18:43:20.688Z,58.79
2022-09-14T18:45:48.391Z,58.67
2022-09-14T18:48:16.270Z,58.72
2022-09-14T18:50:43.982Z,58.26
2022-09-14T18:53:13.106Z,58.72
2022-09-14T18:55:40.796Z,58.93
2022-09-14T18:58:09.004Z,58.57
2022-09-14T19:00:37.096Z,58.96
2022-09-14T19:03:04.926Z,58.86
2022-09-14T19:05:33.886Z,58.73
2022-09-14T19:08:01.698Z,58.96
2022-09-14T19:10:31.407Z,58.75
2022-09-14T19:13:00.345Z,58.85
2022-09-14T19:15:32.073Z,58.62
2022-09-14T19:18:01.008Z,58.68
2022-09-14T19:20:48.770Z,58.85
2022-09-14T19:23:17.062Z,58.39
2022-09-14T19:25:51.122Z,58.65
2022-09-14T19:28:19.083Z,58.61
2022-09-14T19:30:55.357Z,58.75
2022-09-14T19:33:23.572Z,58.75
2022-09-14T19:35:51.182Z,58.71
2022-09-14T19:38:18.906Z,58.60
2022-09-14T19:40:53.655Z,58.84
2022-09-14T19:43:24.910Z,58.42
2022-09-14T19:45:53.740Z,58.69
2022-09-14T19:48:21.394Z,58.44
2022-09-14T19:50:49.240Z,58.58
2022-09-14T19:53:16.903Z,58.85
2022-09-14T19:55:44.741Z,58.50
2022-09-14T19:58:13.844Z,58.34
2022-09-14T20:00:41.516Z,58.71
2022-09-14T20:03:09.427Z,58.73
2022-09-14T20:05:37.103Z,58.89
2022-09-14T20:08:04.765Z,58.66
2022-09-14T20:10:32.366Z,58.94
2022-09-14T20:13:00.082Z,59.02
2022-09-14T20:15:30.882Z,59.04
2022-09-14T20:17:58.645Z,58.82
2022-09-14T20:20:26.370Z,59.10
2022-09-14T20:22:53.978Z,58.98
2022-09-14T20:25:21.608Z,58.74
2022-09-14T20:27:49.525Z,59.10
2022-09-14T20:30:17.587Z,58.72
2022-09-14T20:32:46.685Z,58.85
2022-09-14T20:35:14.520Z,58.83
2022-09-14T20:37:43.634Z,59.15
2022-09-14T20:40:12.129Z,58.74
2022-09-14T20:42:39.814Z,59.10
2022-09-14T20:45:09.164Z,59.04
2022-09-14T20:47:36.922Z,58.81
2022-09-14T20:50:07.011Z,59.07
2022-09-14T20:52:35.077Z,59.13
2022-09-14T20:55:02.783Z,59.03
2022-09-14T20:57:30.458Z,58.89
2022-09-14T20:59:58.141Z,59.11
2022-09-14T21:02:25.847Z,59.13
2022-09-14T21:04:53.556Z,59.05
2022-09-14T21:07:23.049Z,58.97
2022-09-14T21:09:50.797Z,59.20
2022-09-14T21:12:18.402Z,59.46
2022-09-14T21:14:47.908Z,59.50
2022-09-14T21:17:17.442Z,59.62
2022-09-14T21:19:47.102Z,59.66
2022-09-14T21:22:14.745Z,59.65
2022-09-14T21:24:43.819Z,59.67
2022-09-14T21:27:11.445Z,59.60
2022-09-14T21:29:39.079Z,59.73
2022-09-14T21:34:35.450Z,60.02
2022-09-14T21:37:03.013Z,60.09
2022-09-14T21:39:30.648Z,59.89
2022-09-14T21:41:59.933Z,60.08
2022-09-14T21:44:31.222Z,60.33
2022-09-14T21:46:58.861Z,60.38
2022-09-14T21:49:26.614Z,60.29
2022-09-14T21:51:54.209Z,60.28
2022-09-14T21:54:22.215Z,60.54
2022-09-14T21:56:49.859Z,60.44
2022-09-14T21:59:21.153Z,60.55
2022-09-14T22:01:49.135Z,60.59
2022-09-14T22:04:17.997Z,60.94
2022-09-14T22:06:46.115Z,60.88
2022-09-14T22:09:14.084Z,60.88
2022-09-14T22:11:41.669Z,60.98
2022-09-14T22:14:11.703Z,61.04
2022-09-14T22:16:40.852Z,60.98
2022-09-14T22:19:13.326Z,61.13
2022-09-14T22:21:41.034Z,61.17
2022-09-14T22:24:11.321Z,61.15
2022-09-14T22:26:39.467Z,61.43
2022-09-14T22:29:08.677Z,61.43
2022-09-14T22:31:36.857Z,61.28
2022-09-14T22:34:06.212Z,61.43
2022-09-14T22:36:33.930Z,61.30
2022-09-14T22:39:01.765Z,61.52
2022-09-14T22:41:29.745Z,61.45
2022-09-14T22:43:58.503Z,61.52
2022-09-14T22:46:26.224Z,61.28
2022-09-14T22:48:53.978Z,61.25
2022-09-14T22:51:25.481Z,61.44
2022-09-14T22:53:53.316Z,61.07
2022-09-14T22:56:22.293Z,61.21
2022-09-14T22:58:49.989Z,61.13
2022-09-14T23:01:19.433Z,61.23
2022-09-14T23:03:47.108Z,60.75
2022-09-14T23:06:14.744Z,60.90
2022-09-14T23:08:43.869Z,61.20
2022-09-14T23:11:12.620Z,60.84
2022-09-14T23:13:41.037Z,60.62
2022-09-14T23:16:12.568Z,60.53
2022-09-14T23:18:40.366Z,60.21
2022-09-14T23:21:08.109Z,60.54
2022-09-14T23:23:35.788Z,60.29
2022-09-14T23:26:05.390Z,60.56
2022-09-14T23:28:33.147Z,60.44
2022-09-14T23:31:00.981Z,60.78
2022-09-14T23:33:28.973Z,60.52
2022-09-14T23:35:56.721Z,60.70
2022-09-14T23:38:24.682Z,60.36
2022-09-14T23:40:52.291Z,60.30
2022-09-14T23:43:21.360Z,60.28
2022-09-14T23:45:49.027Z,60.23
2022-09-14T23:48:16.726Z,60.21
2022-09-14T23:50:44.601Z,59.96
2022-09-14T23:53:12.306Z,60.56
2022-09-14T23:55:39.900Z,60.26
2022-09-14T23:58:07.479Z,60.07
